Time;durP1;ratioP1;P1;durP2;ratioP2;P2;SDS_P1;SDS_P2;PMS_P1;PMS_P2;Temp;Humidity;BMP_temperature;BMP_pressure;BME280_temperature;BME280_humidity;BME280_pressure;Samples;Min_cycle;Max_cycle;Signal;HPM_P1;HPM_P2
2022/05/10 00:01:44;;;;;;;11.98;9.30;;;13.50;75.60;;;;;;5116625;28;20072;-73
2022/05/10 00:04:11;;;;;;;16.00;8.45;;;13.40;75.70;;;;;;5116354;28;20024;-72
2022/05/10 00:06:43;;;;;;;11.18;9.30;;;13.30;76.10;;;;;;5116166;28;20096;-72
2022/05/10 00:09:08;;;;;;;11.23;9.50;;;13.10;76.70;;;;;;5116407;28;20032;-72
2022/05/10 00:11:35;;;;;;;12.43;9.65;;;13.00;77.40;;;;;;5116040;28;20046;-72
2022/05/10 00:14:00;;;;;;;15.77;11.07;;;12.90;77.90;;;;;;5116185;28;20059;-72
2022/05/10 00:16:26;;;;;;;22.27;12.50;;;12.80;78.40;;;;;;5098024;28;20112;-72
2022/05/10 00:18:51;;;;;;;17.05;11.90;;;12.60;78.80;;;;;;5115990;28;20023;-72
2022/05/10 00:21:22;;;;;;;22.90;11.02;;;12.50;79.50;;;;;;5115798;28;20097;-72
2022/05/10 00:23:48;;;;;;;14.50;10.07;;;12.50;79.70;;;;;;5116083;28;20016;-72
2022/05/10 00:26:14;;;;;;;14.30;9.98;;;12.50;79.70;;;;;;5115993;28;20036;-72
2022/05/10 00:28:40;;;;;;;13.00;10.55;;;12.40;80.00;;;;;;5114643;28;20031;-72
2022/05/10 00:31:08;;;;;;;15.48;11.40;;;12.50;80.10;;;;;;5115853;28;20035;-72
2022/05/10 00:33:33;;;;;;;14.50;11.75;;;12.50;79.90;;;;;;5115893;28;20032;-74
2022/05/10 00:35:59;;;;;;;12.20;9.90;;;12.50;80.00;;;;;;5115926;28;20015;-72
2022/05/10 00:38:31;;;;;;;11.48;9.75;;;12.50;80.00;;;;;;5115595;28;20054;-72
2022/05/10 00:41:09;;;;;;;10.48;9.02;;;12.50;79.80;;;;;;5115718;28;20379;-72
2022/05/10 00:43:39;;;;;;;12.88;9.68;;;12.50;79.90;;;;;;5115819;28;20030;-72
2022/05/10 00:46:19;;;;;;;11.30;9.30;;;12.60;79.40;;;;;;5115668;28;20073;-71
2022/05/10 00:49:02;;;;;;;9.90;8.75;;;12.60;79.40;;;;;;5115642;28;20020;-72
2022/05/10 00:51:48;;;;;;;10.80;8.52;;;12.60;80.20;;;;;;5115257;28;20063;-72
2022/05/10 00:54:22;;;;;;;;;;;12.60;79.20;;;;;;5115917;28;20033;-72
2022/05/10 00:57:14;;;;;;;10.60;8.45;;;12.70;79.10;;;;;;5097168;28;19943;-72
2022/05/10 01:00:11;;;;;;;12.23;9.13;;;12.70;79.00;;;;;;5115353;28;20035;-72
2022/05/10 01:02:46;;;;;;;11.80;9.73;;;12.70;78.60;;;;;;5115222;28;20564;-72
2022/05/10 01:05:27;;;;;;;13.20;9.43;;;12.70;78.80;;;;;;5115242;28;20080;-72
2022/05/10 01:08:01;;;;;;;13.48;9.13;;;12.50;79.20;;;;;;5115010;28;20277;-72
2022/05/10 01:10:44;;;;;;;15.15;9.13;;;12.50;79.20;;;;;;5115067;28;20035;-72
2022/05/10 01:13:34;;;;;;;11.88;8.90;;;12.50;79.50;;;;;;5115164;28;20149;-72
2022/05/10 01:16:04;;;;;;;12.90;9.70;;;12.50;79.60;;;;;;5115075;28;20021;-72
2022/05/10 01:18:31;;;;;;;11.88;10.00;;;12.40;79.40;;;;;;5115037;28;20050;-72
2022/05/10 01:21:23;;;;;;;11.40;9.48;;;12.30;79.70;;;;;;5114983;28;20068;-72
2022/05/10 01:24:15;;;;;;;13.05;9.75;;;12.30;80.10;;;;;;5085811;28;20496;-72
2022/05/10 01:27:26;;;;;;;11.90;9.52;;;12.30;80.20;;;;;;5115349;28;20020;-72
2022/05/10 01:30:09;;;;;;;12.68;9.88;;;12.30;80.30;;;;;;5065034;28;20031;-71
2022/05/10 01:35:37;;;;;;;12.57;9.05;;;12.30;80.30;;;;;;5114862;28;20498;-72
2022/05/10 01:38:11;;;;;;;12.27;9.68;;;12.20;80.10;;;;;;5114606;28;20028;-72
2022/05/10 01:40:42;;;;;;;12.05;10.27;;;12.30;80.30;;;;;;5114711;28;20073;-72
2022/05/10 01:43:19;;;;;;;14.38;9.90;;;12.20;80.00;;;;;;5113380;28;20383;-71
2022/05/10 01:45:54;;;;;;;12.68;9.70;;;12.10;80.70;;;;;;5114578;28;20468;-72
2022/05/10 01:48:21;;;;;;;12.05;10.15;;;12.10;80.90;;;;;;5114475;28;20491;-72
2022/05/10 01:50:56;;;;;;;13.23;10.05;;;12.00;81.30;;;;;;5114374;28;20039;-72
2022/05/10 01:53:36;;;;;;;12.93;10.30;;;12.00;81.30;;;;;;5114371;28;20020;-72
2022/05/10 01:56:09;;;;;;;14.48;10.27;;;12.10;81.20;;;;;;5113016;28;20024;-72
2022/05/10 01:58:38;;;;;;;11.10;9.88;;;12.10;81.10;;;;;;5114238;28;20063;-71
2022/05/10 02:01:11;;;;;;;11.55;9.63;;;12.00;81.10;;;;;;5114142;28;20103;-72
2022/05/10 02:03:52;;;;;;;11.38;9.50;;;12.00;81.00;;;;;;5114102;28;20095;-72
2022/05/10 02:06:37;;;;;;;13.80;10.60;;;12.00;81.00;;;;;;5114087;28;20024;-72
2022/05/10 02:09:11;;;;;;;15.05;10.63;;;12.00;81.40;;;;;;5114073;28;20054;-72
2022/05/10 02:11:44;;;;;;;11.75;10.35;;;11.90;81.50;;;;;;5113895;28;20317;-72
2022/05/10 02:14:32;;;;;;;11.13;9.98;;;11.90;81.40;;;;;;5114060;28;20029;-72
2022/05/10 02:17:19;;;;;;;15.88;10.20;;;11.80;81.40;;;;;;5114004;28;20016;-72
2022/05/10 02:20:00;;;;;;;14.90;10.57;;;11.80;81.80;;;;;;5113894;28;20023;-71
2022/05/10 02:22:38;;;;;;;11.02;9.82;;;11.70;82.30;;;;;;5095484;28;20019;-72
2022/05/10 02:25:29;;;;;;;12.57;9.80;;;11.70;82.30;;;;;;5113754;28;20106;-72
2022/05/10 02:28:20;;;;;;;11.98;10.15;;;11.70;82.40;;;;;;5085905;28;20396;-72
2022/05/10 02:30:45;;;;;;;13.30;10.60;;;11.70;82.30;;;;;;5102601;28;20035;-72
2022/05/10 02:33:14;;;;;;;12.80;10.32;;;11.70;82.50;;;;;;5113786;28;20077;-72
2022/05/10 02:35:48;;;;;;;13.50;11.40;;;11.70;82.60;;;;;;5113774;28;20081;-71
2022/05/10 02:38:20;;;;;;;14.38;10.73;;;11.60;82.80;;;;;;5113853;28;20025;-72
2022/05/10 02:40:47;;;;;;;14.98;11.15;;;11.70;82.60;;;;;;5112688;28;20103;-72
2022/05/10 02:43:16;;;;;;;11.65;10.32;;;11.70;82.50;;;;;;5113733;28;20020;-72
2022/05/10 02:45:43;;;;;;;13.27;10.43;;;11.70;82.40;;;;;;5113692;28;20015;-72
2022/05/10 02:48:21;;;;;;;16.33;11.07;;;11.70;82.30;;;;;;5113613;28;20023;-72
2022/05/10 02:50:46;;;;;;;13.38;10.77;;;11.70;82.10;;;;;;5095264;28;20437;-72
2022/05/10 02:53:12;;;;;;;12.27;10.27;;;11.70;82.10;;;;;;5113364;28;20019;-72
2022/05/10 02:55:54;;;;;;;15.43;10.05;;;11.70;82.30;;;;;;5113079;28;20019;-72
2022/05/10 02:58:34;;;;;;;14.02;11.63;;;11.60;82.50;;;;;;5113365;28;20016;-72
2022/05/10 03:01:18;;;;;;;16.30;12.05;;;11.60;82.70;;;;;;5113530;28;20024;-73
2022/05/10 03:03:44;;;;;;;13.07;11.23;;;11.50;82.60;;;;;;5113695;28;20028;-72
2022/05/10 03:06:17;;;;;;;15.38;11.73;;;11.50;82.50;;;;;;5113618;28;20050;-73
2022/05/10 03:08:44;;;;;;;13.98;11.80;;;11.30;83.20;;;;;;5113230;28;20052;-72
2022/05/10 03:11:11;;;;;;;15.57;12.10;;;11.30;83.80;;;;;;5113417;28;20031;-74
2022/05/10 03:13:37;;;;;;;15.98;11.90;;;11.20;84.00;;;;;;5113481;28;20020;-73
2022/05/10 03:16:03;;;;;;;15.23;10.82;;;11.20;83.90;;;;;;5113404;28;20028;-73
2022/05/10 03:18:29;;;;;;;15.50;12.38;;;11.30;84.10;;;;;;5113253;28;20020;-73
2022/05/10 03:20:54;;;;;;;14.27;11.63;;;11.30;83.90;;;;;;5094952;28;20400;-72
2022/05/10 03:23:20;;;;;;;17.08;12.30;;;11.40;83.90;;;;;;5113315;28;20032;-72
2022/05/10 03:25:46;;;;;;;14.57;11.18;;;11.30;84.00;;;;;;5113305;28;20022;-73
2022/05/10 03:28:11;;;;;;;15.40;12.55;;;11.30;83.90;;;;;;5113245;28;20016;-73
2022/05/10 03:30:40;;;;;;;15.15;12.30;;;11.20;83.90;;;;;;5113181;28;20028;-73
2022/05/10 03:33:06;;;;;;;14.60;11.95;;;11.20;84.10;;;;;;5094919;28;20541;-72
2022/05/10 03:35:31;;;;;;;15.20;12.00;;;11.20;84.30;;;;;;5113200;28;20024;-73
2022/05/10 03:37:57;;;;;;;15.15;11.93;;;11.30;84.30;;;;;;5113035;28;20032;-72
2022/05/10 03:40:22;;;;;;;14.52;11.95;;;11.30;84.00;;;;;;5112996;28;20027;-72
2022/05/10 03:42:52;;;;;;;17.88;12.35;;;11.30;83.90;;;;;;5113198;28;20106;-72
2022/05/10 03:45:20;;;;;;;15.57;11.77;;;11.30;83.70;;;;;;5113050;28;20047;-72
2022/05/10 03:47:47;;;;;;;13.00;11.38;;;11.30;83.80;;;;;;5112947;28;20057;-72
2022/05/10 03:50:14;;;;;;;16.30;11.60;;;11.30;83.70;;;;;;5113243;28;20039;-72
2022/05/10 03:52:41;;;;;;;16.85;11.60;;;11.30;83.50;;;;;;5114944;28;20042;-73
2022/05/10 03:55:09;;;;;;;19.30;12.43;;;11.30;83.50;;;;;;5117100;28;20023;-73
2022/05/10 03:57:34;;;;;;;19.23;13.32;;;11.20;83.70;;;;;;5116842;28;20020;-72
2022/05/10 04:00:00;;;;;;;14.45;12.23;;;11.20;84.20;;;;;;5116746;28;20098;-72
2022/05/10 04:02:26;;;;;;;16.17;12.77;;;11.20;84.50;;;;;;5116541;28;20023;-72
2022/05/10 04:04:52;;;;;;;18.83;12.70;;;11.10;84.70;;;;;;5116496;28;20068;-72
2022/05/10 04:07:17;;;;;;;20.52;12.60;;;11.20;84.30;;;;;;5116374;28;20036;-72
2022/05/10 04:09:43;;;;;;;18.35;13.30;;;11.30;83.90;;;;;;5116527;28;20035;-72
2022/05/10 04:12:09;;;;;;;15.02;12.07;;;11.20;84.10;;;;;;5116370;28;20040;-72
2022/05/10 04:14:35;;;;;;;17.92;12.93;;;11.20;84.20;;;;;;5116345;28;20020;-72
2022/05/10 04:17:01;;;;;;;18.92;12.35;;;11.20;84.20;;;;;;5116359;28;20380;-72
2022/05/10 04:19:26;;;;;;;35.75;22.92;;;11.30;84.20;;;;;;5115991;28;20027;-72
2022/05/10 04:21:52;;;;;;;20.42;14.80;;;11.30;84.10;;;;;;5115900;28;20103;-73
2022/05/10 04:24:18;;;;;;;16.80;12.27;;;11.30;84.20;;;;;;5115948;28;20536;-73
2022/05/10 04:26:44;;;;;;;16.08;12.45;;;11.30;84.30;;;;;;5115733;28;20039;-76
2022/05/10 04:29:10;;;;;;;16.42;12.52;;;11.40;84.20;;;;;;5116094;28;20027;-74
2022/05/10 04:31:36;;;;;;;13.60;11.63;;;11.50;83.80;;;;;;5115960;28;20087;-77
2022/05/10 04:34:01;;;;;;;18.50;12.50;;;11.50;83.70;;;;;;5115923;28;20031;-78
2022/05/10 04:36:27;;;;;;;21.02;12.80;;;11.60;83.20;;;;;;5115862;28;20026;-72
2022/05/10 04:38:53;;;;;;;18.70;13.80;;;11.60;82.90;;;;;;5115879;28;20414;-74
2022/05/10 04:41:25;;;;;;;22.33;14.88;;;11.60;82.60;;;;;;5115746;28;20019;-79
2022/05/10 04:44:02;;;;;;;15.93;13.07;;;11.60;82.70;;;;;;5116127;28;20484;-72
2022/05/10 04:46:32;;;;;;;16.67;12.05;;;11.70;82.50;;;;;;5115696;28;20024;-73
2022/05/10 04:48:59;;;;;;;16.33;11.50;;;11.70;82.30;;;;;;5115534;28;20540;-73
2022/05/10 04:51:24;;;;;;;13.70;11.50;;;11.90;82.00;;;;;;5114411;28;20039;-79
2022/05/10 04:53:50;;;;;;;15.43;11.23;;;12.00;81.60;;;;;;5115445;28;20474;-75
2022/05/10 04:56:16;;;;;;;16.65;11.90;;;12.00;81.10;;;;;;5115476;28;20027;-78
2022/05/10 04:58:42;;;;;;;12.75;10.75;;;12.10;81.10;;;;;;5097191;28;20066;-78
2022/05/10 05:01:11;;;;;;;16.17;10.95;;;12.20;80.90;;;;;;5115498;28;20464;-80
2022/05/10 05:03:37;;;;;;;14.13;11.45;;;12.30;80.50;;;;;;5114617;28;20019;-80
2022/05/10 05:06:03;;;;;;;15.30;11.38;;;12.30;80.20;;;;;;5096875;28;20024;-79
2022/05/10 05:08:28;;;;;;;15.02;11.52;;;12.40;79.90;;;;;;5096729;28;20403;-78
2022/05/10 05:10:57;;;;;;;16.85;11.57;;;12.50;79.70;;;;;;5115026;28;20040;-77
2022/05/10 05:13:24;;;;;;;18.15;11.73;;;12.60;79.50;;;;;;5117412;28;20023;-77
2022/05/10 05:15:50;;;;;;;15.38;11.68;;;12.60;79.40;;;;;;5115771;28;20451;-72
2022/05/10 05:18:16;;;;;;;14.43;11.45;;;12.60;79.50;;;;;;5114801;28;20027;-72
2022/05/10 05:20:43;;;;;;;16.33;11.23;;;12.70;79.40;;;;;;5114651;28;20031;-78
2022/05/10 05:23:10;;;;;;;14.20;10.43;;;12.70;79.30;;;;;;5114329;28;20420;-72
2022/05/10 05:25:37;;;;;;;15.93;11.98;;;12.90;79.00;;;;;;5114311;28;20478;-73
2022/05/10 05:28:03;;;;;;;13.30;11.32;;;13.00;78.50;;;;;;5114432;28;20027;-72
2022/05/10 05:30:29;;;;;;;15.45;11.32;;;13.10;78.10;;;;;;5113471;28;20051;-73
2022/05/10 05:32:54;;;;;;;15.05;11.25;;;13.20;77.90;;;;;;5113955;28;20568;-72
2022/05/10 05:35:20;;;;;;;15.27;11.32;;;13.20;77.80;;;;;;5114115;28;20020;-72
2022/05/10 05:37:46;;;;;;;14.80;11.27;;;13.30;78.10;;;;;;5114100;28;20034;-72
2022/05/10 05:40:14;;;;;;;12.27;10.93;;;13.40;78.00;;;;;;5114380;28;20469;-72
2022/05/10 05:42:40;;;;;;;16.55;11.30;;;13.50;77.70;;;;;;5114443;28;20024;-73
2022/05/10 05:45:08;;;;;;;17.02;11.52;;;13.70;77.40;;;;;;5095957;28;20030;-72
2022/05/10 05:47:34;;;;;;;18.10;12.05;;;13.90;77.10;;;;;;5114387;28;20023;-73
2022/05/10 05:49:59;;;;;;;16.70;11.18;;;14.00;76.40;;;;;;5114257;28;20031;-73
2022/05/10 05:52:25;;;;;;;15.43;10.75;;;14.20;75.80;;;;;;5095844;28;20036;-73
2022/05/10 05:54:53;;;;;;;18.40;11.48;;;14.30;75.30;;;;;;5113917;28;20016;-73
2022/05/10 05:57:19;;;;;;;17.58;10.93;;;14.40;75.00;;;;;;5114062;28;20476;-73
2022/05/10 05:59:45;;;;;;;14.20;11.70;;;14.50;75.40;;;;;;5114042;28;20035;-72
2022/05/10 06:02:13;;;;;;;16.83;12.88;;;14.60;75.00;;;;;;5113974;28;20036;-74
2022/05/10 06:04:39;;;;;;;13.93;11.50;;;14.60;75.20;;;;;;5113798;28;20027;-73
2022/05/10 06:07:05;;;;;;;17.27;12.45;;;14.60;75.30;;;;;;5113602;28;20043;-73
2022/05/10 06:09:31;;;;;;;12.88;11.43;;;14.70;74.70;;;;;;5095368;28;20328;-73
2022/05/10 06:11:56;;;;;;;13.40;10.73;;;14.80;74.30;;;;;;5113602;28;20404;-73
2022/05/10 06:14:22;;;;;;;15.80;10.52;;;14.90;74.00;;;;;;5113562;28;20100;-74
2022/05/10 06:16:47;;;;;;;16.02;11.23;;;15.00;74.40;;;;;;5113416;28;20027;-73
2022/05/10 06:19:14;;;;;;;12.25;11.05;;;15.20;73.40;;;;;;5113605;28;20097;-75
2022/05/10 06:21:41;;;;;;;13.70;11.00;;;15.40;72.80;;;;;;5113359;28;20032;-73
2022/05/10 06:24:07;;;;;;;11.95;9.40;;;15.50;72.20;;;;;;5113492;28;20016;-73
2022/05/10 06:26:33;;;;;;;11.98;10.15;;;15.70;72.00;;;;;;5113345;28;20084;-74
2022/05/10 06:28:58;;;;;;;12.07;9.20;;;15.80;71.50;;;;;;5094758;28;20016;-76
2022/05/10 06:31:24;;;;;;;14.52;9.63;;;16.00;70.80;;;;;;5111926;28;20044;-73
2022/05/10 06:33:49;;;;;;;10.45;8.70;;;16.10;70.20;;;;;;5113451;28;20076;-74
2022/05/10 06:36:15;;;;;;;13.98;8.75;;;16.30;69.90;;;;;;5113371;28;20068;-73
2022/05/10 06:38:40;;;;;;;11.25;9.23;;;16.50;69.50;;;;;;5112016;28;20479;-73
2022/05/10 06:41:06;;;;;;;9.70;8.27;;;16.50;69.10;;;;;;5113183;28;20103;-73
2022/05/10 06:43:38;;;;;;;9.40;8.15;;;16.70;68.90;;;;;;5113010;28;20020;-73
2022/05/10 06:46:15;;;;;;;15.00;9.65;;;16.80;68.40;;;;;;5113147;28;20034;-74
2022/05/10 06:48:40;;;;;;;15.30;10.10;;;16.90;68.30;;;;;;5113342;28;20028;-73
2022/05/10 06:51:08;;;;;;;12.52;9.63;;;17.10;68.00;;;;;;5113122;28;20100;-73
2022/05/10 06:53:34;;;;;;;13.02;9.13;;;17.20;67.70;;;;;;5112959;28;20549;-74
2022/05/10 06:56:00;;;;;;;12.05;9.55;;;17.40;67.40;;;;;;5112577;28;20487;-73
2022/05/10 06:58:26;;;;;;;12.85;9.23;;;17.60;67.10;;;;;;5112978;28;20032;-73
2022/05/10 07:00:51;;;;;;;12.00;9.20;;;17.70;67.10;;;;;;5112811;28;20092;-73
2022/05/10 07:03:31;;;;;;;13.18;9.27;;;17.80;66.40;;;;;;5112800;28;20023;-73
2022/05/10 07:06:01;;;;;;;11.57;8.80;;;18.00;66.40;;;;;;5112719;28;20161;-73
2022/05/10 07:08:27;;;;;;;12.15;9.27;;;18.10;66.00;;;;;;5094456;28;20094;-73
2022/05/10 07:10:54;;;;;;;14.15;10.50;;;18.30;65.20;;;;;;5112888;28;20487;-73
2022/05/10 07:13:26;;;;;;;16.13;10.13;;;18.40;65.10;;;;;;5112908;28;20106;-73
2022/05/10 07:15:52;;;;;;;12.80;8.73;;;18.50;65.00;;;;;;5094852;28;20392;-73
2022/05/10 07:18:19;;;;;;;16.38;9.55;;;18.60;64.00;;;;;;5113011;28;20026;-73
2022/05/10 07:20:45;;;;;;;10.48;8.60;;;18.70;63.10;;;;;;5112903;28;20436;-74
2022/05/10 07:23:12;;;;;;;12.38;9.20;;;18.80;63.40;;;;;;5112641;28;20020;-73
2022/05/10 07:25:38;;;;;;;11.88;9.75;;;19.00;63.10;;;;;;5112816;28;20024;-74
2022/05/10 07:28:06;;;;;;;9.45;8.40;;;18.90;62.80;;;;;;5115080;28;20500;-73
2022/05/10 07:30:33;;;;;;;12.00;8.93;;;19.00;62.90;;;;;;5098490;28;20032;-73
2022/05/10 07:32:59;;;;;;;11.50;8.77;;;19.10;62.70;;;;;;5098560;28;20119;-73
2022/05/10 07:38:13;;;;;;;12.15;7.40;;;19.20;62.10;;;;;;5117125;28;20031;-73
2022/05/10 07:40:40;;;;;;;12.00;7.25;;;19.30;60.10;;;;;;5116656;28;20043;-72
2022/05/10 07:43:06;;;;;;;9.43;7.22;;;19.40;60.80;;;;;;5117116;28;20011;-72
2022/05/10 07:45:33;;;;;;;8.07;5.55;;;19.50;59.40;;;;;;5116693;28;20463;-74
2022/05/10 07:47:59;;;;;;;7.68;5.10;;;19.70;59.20;;;;;;5120225;28;20020;-73
2022/05/10 07:50:25;;;;;;;6.53;5.35;;;19.80;58.10;;;;;;5116977;28;20035;-72
2022/05/10 07:52:51;;;;;;;7.82;5.70;;;20.00;57.20;;;;;;5116594;28;20047;-74
2022/05/10 07:55:18;;;;;;;8.20;6.43;;;20.10;56.30;;;;;;5116073;28;20468;-73
2022/05/10 07:57:44;;;;;;;6.38;5.68;;;20.20;55.60;;;;;;5116445;28;20379;-72
2022/05/10 08:00:14;;;;;;;9.55;7.05;;;20.40;55.20;;;;;;5116476;28;20026;-73
2022/05/10 08:02:44;;;;;;;7.05;6.05;;;20.50;55.00;;;;;;5116334;28;20023;-74
2022/05/10 08:05:11;;;;;;;7.70;6.35;;;20.60;55.20;;;;;;5116221;28;20080;-74
2022/05/10 08:07:36;;;;;;;9.80;7.45;;;20.70;54.10;;;;;;5115840;28;20440;-73
2022/05/10 08:10:02;;;;;;;8.95;8.05;;;20.80;54.10;;;;;;5116064;28;20055;-72
2022/05/10 08:12:27;;;;;;;9.75;6.93;;;20.40;54.50;;;;;;5116004;28;20087;-72
2022/05/10 08:14:53;;;;;;;7.18;6.07;;;20.40;55.60;;;;;;5115995;28;20357;-73
2022/05/10 08:17:18;;;;;;;11.95;7.00;;;20.50;55.50;;;;;;5116025;28;20115;-73
2022/05/10 08:19:45;;;;;;;7.75;6.13;;;20.80;55.10;;;;;;5115632;28;20020;-72
2022/05/10 08:22:11;;;;;;;8.05;7.22;;;20.90;54.00;;;;;;5115975;28;20020;-73
2022/05/10 08:24:36;;;;;;;9.90;6.45;;;21.10;54.70;;;;;;5115924;28;20031;-73
2022/05/10 08:27:02;;;;;;;8.60;6.43;;;21.10;53.40;;;;;;5115890;28;20055;-74
2022/05/10 08:29:28;;;;;;;7.88;5.38;;;21.10;52.40;;;;;;5115798;28;20031;-72
2022/05/10 08:31:53;;;;;;;6.22;5.55;;;21.00;53.20;;;;;;5115773;28;20448;-74
2022/05/10 08:34:19;;;;;;;12.02;5.60;;;21.10;52.30;;;;;;5115901;28;20027;-72
2022/05/10 08:36:46;;;;;;;11.95;5.47;;;21.30;51.80;;;;;;5115789;28;20055;-73
2022/05/10 08:39:13;;;;;;;6.03;5.43;;;21.20;50.20;;;;;;5115557;28;20420;-72
2022/05/10 08:41:53;;;;;;;6.60;5.43;;;21.20;48.70;;;;;;5115588;28;20027;-73
2022/05/10 08:44:23;;;;;;;5.43;4.93;;;21.20;50.20;;;;;;5115552;28;20027;-73
2022/05/10 08:46:56;;;;;;;5.90;4.82;;;21.20;48.00;;;;;;5115411;28;20027;-72
2022/05/10 08:49:35;;;;;;;5.28;4.72;;;21.40;48.40;;;;;;5115457;28;20023;-72
2022/05/10 08:52:02;;;;;;;8.77;4.47;;;21.50;46.50;;;;;;5115462;28;20088;-72
2022/05/10 08:54:29;;;;;;;5.75;4.55;;;21.60;47.20;;;;;;5115242;28;20023;-73
2022/05/10 08:56:59;;;;;;;5.75;5.15;;;21.70;45.80;;;;;;5115152;28;20065;-72
2022/05/10 08:59:44;;;;;;;7.45;4.85;;;21.80;45.60;;;;;;5115342;28;20028;-73
2022/05/10 09:02:26;;;;;;;5.53;4.85;;;21.80;45.60;;;;;;5096787;28;20028;-72
2022/05/10 09:05:04;;;;;;;6.40;4.80;;;21.90;47.60;;;;;;5096885;28;20028;-73
2022/05/10 09:07:45;;;;;;;4.97;4.45;;;22.00;46.20;;;;;;5114709;28;20039;-74
2022/05/10 09:10:34;;;;;;;6.03;4.88;;;22.10;45.40;;;;;;5114959;28;20544;-72
2022/05/10 09:13:05;;;;;;;6.13;4.70;;;22.00;43.50;;;;;;5115153;28;20484;-76
2022/05/10 09:15:37;;;;;;;6.88;4.65;;;22.00;43.50;;;;;;5114910;28;20476;-81
2022/05/10 09:18:32;;;;;;;6.15;5.15;;;22.00;43.30;;;;;;5114681;28;20027;-74
2022/05/10 09:21:16;;;;;;;7.72;4.50;;;22.00;43.80;;;;;;5092416;28;20036;-74
2022/05/10 09:23:57;;;;;;;5.32;4.38;;;21.90;43.30;;;;;;5114839;28;20520;-72
2022/05/10 09:26:24;;;;;;;5.25;4.20;;;22.00;43.80;;;;;;5113442;28;20031;-71
2022/05/10 09:29:12;;;;;;;3.90;3.60;;;22.20;41.90;;;;;;5115080;28;20028;-73
2022/05/10 09:37:37;;;;;;;5.13;4.00;;;22.10;39.90;;;;;;5114642;28;20115;-73
2022/05/10 09:40:09;;;;;;;5.90;4.10;;;22.30;40.50;;;;;;5114535;28;20022;-72
2022/05/10 09:42:44;;;;;;;5.72;3.60;;;22.60;40.60;;;;;;5114342;28;20020;-71
2022/05/10 09:45:25;;;;;;;6.97;4.15;;;22.80;38.60;;;;;;5114590;28;20020;-81
2022/05/10 09:47:58;;;;;;;4.88;3.83;;;22.80;37.40;;;;;;5114727;28;20020;-72
2022/05/10 09:50:33;;;;;;;6.00;3.28;;;22.90;37.50;;;;;;5095508;28;20020;-73
2022/05/10 09:53:07;;;;;;;;;;;23.10;38.00;;;;;;5114654;28;20133;-78
2022/05/10 09:55:34;;;;;;;5.05;3.55;;;23.30;37.50;;;;;;5114248;28;20359;-79
2022/05/10 09:58:19;;;;;;;5.57;4.00;;;23.40;36.20;;;;;;5114109;28;20076;-76
2022/05/10 10:00:52;;;;;;;5.63;3.95;;;23.50;36.20;;;;;;5114061;28;20384;-76
2022/05/10 10:03:33;;;;;;;4.80;3.40;;;23.50;35.30;;;;;;5113909;28;20026;-72
2022/05/10 10:06:22;;;;;;;4.47;3.13;;;23.70;35.00;;;;;;5113701;28;20073;-72
2022/05/10 10:08:53;;;;;;;6.65;3.75;;;23.60;35.00;;;;;;5113554;28;20047;-73
2022/05/10 10:11:22;;;;;;;5.93;3.30;;;23.80;35.90;;;;;;5113428;28;20034;-72
2022/05/10 10:13:54;;;;;;;7.03;3.20;;;24.10;34.90;;;;;;5113618;28;20031;-72
2022/05/10 10:16:26;;;;;;;4.78;3.50;;;24.10;34.60;;;;;;5113135;28;20023;-73
2022/05/10 10:18:58;;;;;;;4.72;3.60;;;24.20;35.10;;;;;;5113386;28;20024;-76
2022/05/10 10:21:39;;;;;;;4.25;3.47;;;24.10;35.10;;;;;;5113775;28;20069;-75
2022/05/10 10:24:04;;;;;;;6.63;3.72;;;24.20;34.90;;;;;;5113307;28;20047;-74
2022/05/10 10:26:46;;;;;;;6.25;3.42;;;24.20;33.00;;;;;;5112017;28;20019;-73
2022/05/10 10:29:16;;;;;;;6.47;3.83;;;24.40;34.20;;;;;;5113416;28;20103;-76
2022/05/10 10:31:50;;;;;;;5.60;3.42;;;24.20;33.40;;;;;;5112934;28;20032;-77
2022/05/10 10:34:40;;;;;;;3.85;3.30;;;24.20;33.60;;;;;;5113053;28;20076;-77
2022/05/10 10:37:12;;;;;;;3.63;3.03;;;24.30;32.20;;;;;;5112964;28;20028;-76
2022/05/10 10:39:45;;;;;;;4.57;3.40;;;24.10;33.00;;;;;;5113076;28;20020;-78
2022/05/10 10:42:29;;;;;;;5.28;2.85;;;24.20;32.30;;;;;;5113175;28;20473;-77
2022/05/10 10:44:57;;;;;;;3.05;2.85;;;24.60;31.50;;;;;;5094940;28;20038;-78
2022/05/10 10:47:38;;;;;;;3.72;2.50;;;24.80;31.00;;;;;;5112705;28;20040;-77
2022/05/10 10:50:26;;;;;;;2.53;2.33;;;25.20;29.70;;;;;;5112088;28;20065;-77
2022/05/10 10:52:54;;;;;;;4.30;2.67;;;25.30;26.50;;;;;;5112474;28;20072;-78
2022/05/10 10:55:21;;;;;;;4.03;2.60;;;25.50;27.70;;;;;;5112581;28;20107;-79
2022/05/10 10:58:11;;;;;;;3.85;2.72;;;25.40;27.10;;;;;;5112296;28;20035;-78
2022/05/10 11:00:47;;;;;;;5.95;2.90;;;25.60;26.10;;;;;;5112472;28;20073;-78
2022/05/10 11:03:37;;;;;;;3.67;2.75;;;25.70;26.00;;;;;;5115336;28;20019;-78
2022/05/10 11:06:13;;;;;;;2.53;2.33;;;25.90;26.50;;;;;;5116814;28;20037;-78
2022/05/10 11:09:00;;;;;;;2.63;2.42;;;26.10;27.40;;;;;;5116639;28;20188;-78
2022/05/10 11:11:49;;;;;;;3.78;2.83;;;26.40;27.80;;;;;;5116738;28;20023;-75
2022/05/10 11:14:48;;;;;;;4.50;3.20;;;26.50;27.30;;;;;;5116763;28;20408;-78
2022/05/10 11:17:37;;;;;;;5.63;2.75;;;26.50;28.90;;;;;;5116296;28;20066;-77
2022/05/10 11:20:22;;;;;;;3.45;2.70;;;26.50;26.60;;;;;;5116759;28;20030;-78
2022/05/10 11:23:06;;;;;;;3.47;3.10;;;26.70;26.60;;;;;;5114851;28;20030;-78
2022/05/10 11:25:43;;;;;;;4.03;2.60;;;26.40;24.70;;;;;;5116722;28;20311;-78
2022/05/10 11:28:44;;;;;;;3.60;2.30;;;26.10;25.00;;;;;;5115299;28;20353;-78
2022/05/10 11:31:44;;;;;;;2.65;2.45;;;26.10;25.60;;;;;;5116392;28;20032;-79
2022/05/10 11:34:42;;;;;;;4.30;2.70;;;26.00;24.60;;;;;;5116163;28;20023;-78
2022/05/10 11:37:15;;;;;;;3.58;2.45;;;26.20;25.20;;;;;;5098191;28;20023;-75
2022/05/10 11:39:56;;;;;;;2.70;2.47;;;26.40;25.60;;;;;;5116872;28;20020;-76
2022/05/10 11:42:54;;;;;;;4.97;2.38;;;26.30;25.40;;;;;;5116453;28;20024;-79
2022/05/10 11:45:59;;;;;;;5.05;2.83;;;26.50;25.90;;;;;;5119628;28;20055;-74
2022/05/10 11:48:30;;;;;;;3.45;2.90;;;26.70;26.80;;;;;;5116926;28;20106;-76
2022/05/10 11:54:38;;;;;;;5.05;3.10;;;26.20;27.50;;;;;;5116477;28;20046;-74
2022/05/10 11:57:08;;;;;;;4.28;2.88;;;25.80;28.50;;;;;;5116025;28;20070;-74
2022/05/10 11:59:36;;;;;;;4.55;2.78;;;25.80;28.20;;;;;;5116311;28;20019;-74
2022/05/10 12:02:03;;;;;;;4.30;2.67;;;25.70;27.50;;;;;;5116518;28;20016;-74
2022/05/10 12:04:40;;;;;;;2.88;2.60;;;25.60;28.50;;;;;;5116292;28;20514;-74
2022/05/10 12:07:29;;;;;;;3.67;2.60;;;25.90;27.60;;;;;;5116082;28;20392;-75
2022/05/10 12:09:56;;;;;;;5.20;2.83;;;26.40;27.20;;;;;;5116157;28;20100;-74
2022/05/10 12:12:47;;;;;;;4.20;2.70;;;26.60;26.60;;;;;;5115739;28;20028;-75
2022/05/10 12:21:21;;;;;;;2.67;2.47;;;27.00;24.60;;;;;;5115981;28;20085;-74
2022/05/10 12:24:20;;;;;;;4.25;2.38;;;26.60;24.70;;;;;;5115808;28;20459;-76
2022/05/10 12:27:19;;;;;;;6.75;2.80;;;26.30;25.30;;;;;;5115926;28;20024;-76
2022/05/10 12:29:52;;;;;;;4.97;2.63;;;26.10;26.60;;;;;;5115293;28;20110;-76
2022/05/10 12:32:36;;;;;;;4.25;2.70;;;25.60;28.30;;;;;;5115482;28;20038;-81
2022/05/10 12:35:05;;;;;;;5.93;2.75;;;25.40;29.70;;;;;;5115795;28;20047;-77
2022/05/10 12:37:37;;;;;;;4.25;2.65;;;25.20;29.80;;;;;;5115472;28;20495;-76
2022/05/10 12:40:08;;;;;;;5.90;2.88;;;25.30;29.70;;;;;;5115797;28;20020;-77
2022/05/10 12:42:55;;;;;;;5.97;2.80;;;25.30;30.00;;;;;;5115517;28;20378;-78
2022/05/10 12:45:34;;;;;;;3.40;2.60;;;25.20;28.20;;;;;;5115730;28;20377;-78
2022/05/10 12:48:31;;;;;;;4.55;2.80;;;25.10;28.00;;;;;;5115520;28;20134;-78
2022/05/10 12:51:31;;;;;;;3.72;2.88;;;25.00;27.40;;;;;;5115526;28;20477;-82
2022/05/10 12:53:59;;;;;;;2.53;2.33;;;25.10;28.30;;;;;;5115408;28;20023;-81
2022/05/10 12:56:28;;;;;;;3.65;2.42;;;25.10;28.40;;;;;;5115384;28;20020;-80
2022/05/10 12:59:19;;;;;;;2.30;2.10;;;25.10;28.70;;;;;;5115247;28;20484;-80
2022/05/10 13:01:46;;;;;;;2.75;2.55;;;25.20;28.80;;;;;;5115158;28;20118;-79
2022/05/10 13:04:20;;;;;;;4.07;3.00;;;25.20;28.70;;;;;;5115258;28;20024;-78
2022/05/10 13:06:58;;;;;;;5.35;3.15;;;25.10;29.30;;;;;;5115268;28;20055;-75
2022/05/10 13:09:29;;;;;;;8.60;3.00;;;24.80;30.50;;;;;;5115377;28;20369;-77
2022/05/10 13:11:57;;;;;;;5.40;3.05;;;24.70;30.50;;;;;;5115014;28;20092;-79
2022/05/10 13:14:26;;;;;;;6.40;3.75;;;24.50;30.90;;;;;;5115034;28;20428;-78
2022/05/10 13:16:54;;;;;;;3.42;3.13;;;24.60;31.70;;;;;;5115088;28;20467;-81
2022/05/10 13:19:23;;;;;;;4.95;3.40;;;24.70;31.40;;;;;;5115258;28;20519;-82
2022/05/10 13:21:49;;;;;;;7.13;3.78;;;24.80;31.80;;;;;;5115375;28;20027;-79
2022/05/10 13:24:18;;;;;;;7.05;3.28;;;24.90;31.30;;;;;;5095986;28;20079;-81
2022/05/10 13:26:59;;;;;;;4.55;3.15;;;24.80;31.40;;;;;;5114500;28;20475;-78